Time;durP1;ratioP1;P1;durP2;ratioP2;P2;SDS_P1;SDS_P2;PMS_P1;PMS_P2;Temp;Humidity;BMP_temperature;BMP_pressure;BME280_temperature;BME280_humidity;BME280_pressure;Samples;Min_cycle;Max_cycle;Signal;HPM_P1;HPM_P2
2022/06/30 00:01:40;;;;;;;16.92;14.88;;;;;;;;;;8381115;28;20480;-90
2022/06/30 00:05:43;;;;;;;20.38;15.68;;;;;;;;;;8389205;28;20044;-90
2022/06/30 00:09:46;;;;;;;20.92;15.52;;;;;;;;;;8378058;28;20048;-90
2022/06/30 00:13:51;;;;;;;19.25;15.95;;;;;;;;;;8371817;28;20045;-90
2022/06/30 00:17:54;;;;;;;19.75;16.05;;;;;;;;;;8369598;28;20041;-90
2022/06/30 00:21:57;;;;;;;22.65;15.82;;;;;;;;;;8379821;28;20046;-89
2022/06/30 00:25:59;;;;;;;21.17;16.05;;;;;;;;;;8378538;28;20068;-89
2022/06/30 00:30:04;;;;;;;17.25;15.05;;;;;;;;;;8374768;28;20044;-91
2022/06/30 00:34:09;;;;;;;19.15;15.13;;;;;;;;;;8390079;28;20451;-93
2022/06/30 00:38:12;;;;;;;16.95;13.82;;;;;;;;;;8381207;28;20040;-91
2022/06/30 00:42:15;;;;;;;17.70;15.15;;;;;;;;;;8384151;28;20114;-91
2022/06/30 00:46:19;;;;;;;16.05;14.07;;;;;;;;;;8386922;28;20453;-91
2022/06/30 00:50:22;;;;;;;17.63;15.13;;;;;;;;;;8385596;28;20063;-90
2022/06/30 00:54:26;;;;;;;17.50;14.07;;;;;;;;;;8378779;28;20037;-93
2022/06/30 00:58:30;;;;;;;17.70;14.52;;;;;;;;;;8383643;28;20044;-89
2022/06/30 01:02:35;;;;;;;16.60;13.73;;;;;;;;;;8375058;28;20055;-89
2022/06/30 01:06:38;;;;;;;17.67;13.93;;;;;;;;;;8380001;28;20045;-90
2022/06/30 01:15:02;;;;;;;16.88;14.52;;;;;;;;;;8383378;28;20049;-89
2022/06/30 01:19:06;;;;;;;17.48;14.32;;;;;;;;;;8375891;28;20121;-90
2022/06/30 01:23:10;;;;;;;16.73;14.65;;;;;;;;;;8365957;28;20037;-91
2022/06/30 01:27:13;;;;;;;18.10;14.32;;;;;;;;;;8377541;28;20041;-93
2022/06/30 01:31:15;;;;;;;18.35;14.52;;;;;;;;;;8375103;28;20045;-89
2022/06/30 01:35:18;;;;;;;19.50;14.77;;;;;;;;;;8380997;28;20504;-89
2022/06/30 01:39:22;;;;;;;18.90;14.05;;;;;;;;;;8380228;28;20048;-89
2022/06/30 01:43:25;;;;;;;17.50;13.90;;;;;;;;;;8377218;28;20045;-91
2022/06/30 01:47:27;;;;;;;17.08;13.75;;;;;;;;;;8379876;28;20048;-90
2022/06/30 01:51:30;;;;;;;17.88;15.07;;;;;;;;;;8375543;28;20048;-91
2022/06/30 01:55:34;;;;;;;17.92;14.63;;;;;;;;;;8386258;28;20099;-90
2022/06/30 01:59:37;;;;;;;17.08;14.05;;;;;;;;;;8377237;28;20064;-91
2022/06/30 02:03:39;;;;;;;17.83;14.98;;;;;;;;;;8375691;28;20105;-91
2022/06/30 02:07:42;;;;;;;16.67;14.88;;;;;;;;;;8375405;28;20492;-90
2022/06/30 02:11:46;;;;;;;18.40;15.48;;;;;;;;;;8369833;28;20119;-89
2022/06/30 02:15:49;;;;;;;18.00;14.15;;;;;;;;;;8366699;28;20047;-89
2022/06/30 02:19:51;;;;;;;18.52;14.95;;;;;;;;;;8370916;28;20044;-89
2022/06/30 02:23:54;;;;;;;21.40;15.13;;;;;;;;;;8375531;28;20044;-89
2022/06/30 02:27:58;;;;;;;20.30;15.60;;;;;;;;;;8376510;28;20400;-88
2022/06/30 02:32:00;;;;;;;18.55;15.30;;;;;;;;;;8373522;28;20044;-90
2022/06/30 02:36:03;;;;;;;18.67;15.27;;;;;;;;;;8380286;28;20501;-92
2022/06/30 02:40:07;;;;;;;18.63;15.45;;;;;;;;;;8375278;28;20051;-90
2022/06/30 02:44:12;;;;;;;18.45;15.70;;;;;;;;;;8370905;28;20041;-89
2022/06/30 02:48:16;;;;;;;17.60;14.48;;;;;;;;;;8389144;28;20472;-90
2022/06/30 02:52:19;;;;;;;18.48;16.02;;;;;;;;;;8388794;28;20079;-90
2022/06/30 02:56:21;;;;;;;18.10;14.70;;;;;;;;;;8374959;28;20049;-89
2022/06/30 03:00:25;;;;;;;19.55;17.45;;;;;;;;;;8370334;28;20048;-92
2022/06/30 03:04:28;;;;;;;21.63;16.73;;;;;;;;;;8367394;28;20052;-90
2022/06/30 03:08:31;;;;;;;17.90;15.55;;;;;;;;;;8369226;28;20071;-92
2022/06/30 03:12:33;;;;;;;21.02;16.67;;;;;;;;;;8377971;28;20052;-91
2022/06/30 03:16:37;;;;;;;19.70;16.13;;;;;;;;;;8369538;28;20048;-91
2022/06/30 03:20:40;;;;;;;18.10;15.63;;;;;;;;;;8375324;28;20045;-89
2022/06/30 03:24:42;;;;;;;20.13;15.45;;;;;;;;;;8379576;28;20489;-90
2022/06/30 03:28:45;;;;;;;19.30;15.70;;;;;;;;;;8389282;28;20048;-90
2022/06/30 03:32:49;;;;;;;18.77;15.48;;;;;;;;;;8385171;28;20045;-89
2022/06/30 03:36:51;;;;;;;25.52;16.33;;;;;;;;;;8374807;28;20044;-91
2022/06/30 03:40:54;;;;;;;21.73;16.40;;;;;;;;;;8373904;28;20124;-89
2022/06/30 03:44:57;;;;;;;19.15;15.30;;;;;;;;;;8370631;28;20045;-89
2022/06/30 03:49:01;;;;;;;19.17;16.40;;;;;;;;;;8384969;28;20127;-89
2022/06/30 03:53:04;;;;;;;22.27;17.13;;;;;;;;;;8377741;28;20048;-91
2022/06/30 03:57:07;;;;;;;23.30;17.40;;;;;;;;;;8374531;28;20507;-92
2022/06/30 04:01:09;;;;;;;21.65;16.80;;;;;;;;;;8372221;28;20041;-89
2022/06/30 04:05:14;;;;;;;23.17;16.92;;;;;;;;;;8370104;28;20092;-89
2022/06/30 04:09:16;;;;;;;20.02;16.38;;;;;;;;;;8379924;28;20434;-90
2022/06/30 04:13:19;;;;;;;19.10;16.02;;;;;;;;;;8378637;28;20516;-89
2022/06/30 04:17:21;;;;;;;19.10;16.33;;;;;;;;;;8378011;28;20045;-89
2022/06/30 04:21:26;;;;;;;17.52;14.13;;;;;;;;;;8373975;28;20045;-89
2022/06/30 04:25:28;;;;;;;17.48;15.45;;;;;;;;;;8370680;28;20045;-88
2022/06/30 04:29:31;;;;;;;16.67;14.60;;;;;;;;;;8370617;28;20052;-91
2022/06/30 04:33:34;;;;;;;16.50;14.45;;;;;;;;;;8378657;28;20096;-90
2022/06/30 04:37:39;;;;;;;19.17;15.55;;;;;;;;;;8350891;28;20119;-91
2022/06/30 04:41:42;;;;;;;17.17;15.02;;;;;;;;;;8375168;28;20048;-89
2022/06/30 04:45:45;;;;;;;16.20;14.55;;;;;;;;;;8379655;28;20049;-89
2022/06/30 04:49:48;;;;;;;20.17;14.18;;;;;;;;;;8374902;28;20098;-91
2022/06/30 04:53:53;;;;;;;17.35;14.70;;;;;;;;;;8374121;28;20048;-88
2022/06/30 04:57:56;;;;;;;17.90;14.32;;;;;;;;;;8368470;28;20557;-89
2022/06/30 05:01:59;;;;;;;21.00;13.82;;;;;;;;;;8367905;28;20045;-90
2022/06/30 05:06:04;;;;;;;15.35;13.30;;;;;;;;;;8363685;28;20049;-90
2022/06/30 05:10:10;;;;;;;17.70;13.95;;;;;;;;;;8380246;28;20044;-90
2022/06/30 05:14:13;;;;;;;15.65;14.00;;;;;;;;;;8376071;28;20048;-88
2022/06/30 05:18:16;;;;;;;14.55;13.05;;;;;;;;;;8375833;28;20527;-87
2022/06/30 05:22:19;;;;;;;16.13;13.27;;;;;;;;;;8375074;28;20044;-88
2022/06/30 05:26:30;;;;;;;15.95;13.40;;;;;;;;;;8378227;28;20123;-90
2022/06/30 05:30:33;;;;;;;;;;;;;;;;;;8371821;28;20409;-89
2022/06/30 05:34:37;;;;;;;14.68;13.18;;;;;;;;;;8374580;28;19920;-88
2022/06/30 05:38:39;;;;;;;16.25;13.68;;;;;;;;;;8376974;28;20044;-89
2022/06/30 05:42:44;;;;;;;16.23;13.63;;;;;;;;;;8381357;28;20476;-87
2022/06/30 05:46:48;;;;;;;17.52;13.63;;;;;;;;;;8352676;28;20050;-88
2022/06/30 05:50:56;;;;;;;14.35;12.85;;;;;;;;;;8383505;28;20064;-88
2022/06/30 05:55:01;;;;;;;16.73;14.27;;;;;;;;;;8363398;28;20044;-87
2022/06/30 05:59:07;;;;;;;21.55;15.23;;;;;;;;;;8363574;28;20049;-93
2022/06/30 06:03:12;;;;;;;20.42;14.60;;;;;;;;;;8371036;28;20060;-92
2022/06/30 06:07:19;;;;;;;17.20;14.65;;;;;;;;;;8381237;28;20115;-88
2022/06/30 06:11:23;;;;;;;19.13;14.27;;;;;;;;;;8381370;28;20047;-87
2022/06/30 06:15:28;;;;;;;16.10;13.10;;;;;;;;;;8381535;28;20385;-93
2022/06/30 06:19:31;;;;;;;13.95;11.88;;;;;;;;;;8377757;28;20045;-88
2022/06/30 06:23:34;;;;;;;18.00;12.73;;;;;;;;;;8382974;28;20048;-86
2022/06/30 06:27:39;;;;;;;15.18;11.57;;;;;;;;;;8372973;28;20056;-90
2022/06/30 06:31:44;;;;;;;14.15;12.45;;;;;;;;;;8384023;28;20040;-88
2022/06/30 06:35:56;;;;;;;12.90;10.73;;;;;;;;;;8375538;28;20132;-88
2022/06/30 06:40:12;;;;;;;16.42;11.35;;;;;;;;;;8386734;28;20396;-89
2022/06/30 06:44:27;;;;;;;13.48;11.13;;;;;;;;;;8373623;28;20041;-87
2022/06/30 06:48:37;;;;;;;13.30;11.15;;;;;;;;;;8375641;28;20041;-90
2022/06/30 06:52:42;;;;;;;13.50;10.82;;;;;;;;;;8385498;28;20037;-88
2022/06/30 06:56:53;;;;;;;15.20;10.75;;;;;;;;;;8385317;28;20381;-87
2022/06/30 07:00:58;;;;;;;12.63;10.75;;;;;;;;;;8378746;28;20041;-90
2022/06/30 07:05:18;;;;;;;14.05;11.02;;;;;;;;;;8380680;28;20053;-88
2022/06/30 07:09:31;;;;;;;13.35;11.60;;;;;;;;;;8355741;28;20052;-88
2022/06/30 07:13:39;;;;;;;12.77;11.10;;;;;;;;;;8380084;28;22137;-88
2022/06/30 07:17:43;;;;;;;13.73;10.90;;;;;;;;;;8381456;28;20469;-87
2022/06/30 07:21:58;;;;;;;13.73;11.43;;;;;;;;;;8388439;28;20045;-88
2022/06/30 07:26:06;;;;;;;12.73;11.43;;;;;;;;;;8390397;28;20082;-90
2022/06/30 07:30:14;;;;;;;13.27;11.65;;;;;;;;;;8369552;28;20103;-87
2022/06/30 07:34:21;;;;;;;13.93;11.20;;;;;;;;;;8391263;28;20508;-88
2022/06/30 07:38:32;;;;;;;12.68;11.48;;;;;;;;;;8384771;28;20124;-89
2022/06/30 07:42:48;;;;;;;12.60;11.30;;;;;;;;;;8376344;28;20045;-90
2022/06/30 07:46:54;;;;;;;20.48;12.07;;;;;;;;;;8373408;28;20409;-89
2022/06/30 07:51:01;;;;;;;13.65;12.18;;;;;;;;;;8371080;28;20052;-88
2022/06/30 07:55:18;;;;;;;15.63;11.85;;;;;;;;;;8379554;28;20045;-88
2022/06/30 07:59:23;;;;;;;13.23;11.20;;;;;;;;;;8378389;28;20057;-88
2022/06/30 08:03:35;;;;;;;13.45;12.05;;;;;;;;;;8394686;28;20484;-88
2022/06/30 08:07:42;;;;;;;;;;;;;;;;;;8386946;28;20057;-86
2022/06/30 08:12:06;;;;;;;12.70;11.45;;;;;;;;;;8384566;28;19928;-86
2022/06/30 08:16:20;;;;;;;14.23;12.13;;;;;;;;;;8388331;28;20037;-88
2022/06/30 08:20:38;;;;;;;12.82;11.52;;;;;;;;;;8389962;28;20033;-87
2022/06/30 08:24:51;;;;;;;13.45;12.15;;;;;;;;;;8379413;28;20427;-86
2022/06/30 08:29:04;;;;;;;14.40;11.73;;;;;;;;;;8381302;28;20032;-87
2022/06/30 08:33:19;;;;;;;13.05;11.50;;;;;;;;;;8385749;28;20048;-87
2022/06/30 08:37:44;;;;;;;12.68;11.38;;;;;;;;;;8375280;28;20064;-89
2022/06/30 08:42:09;;;;;;;13.05;11.80;;;;;;;;;;8380912;28;20076;-87
2022/06/30 08:46:19;;;;;;;13.38;11.13;;;;;;;;;;8383300;28;20053;-86
2022/06/30 08:50:23;;;;;;;13.15;10.73;;;;;;;;;;8371150;28;20045;-87
2022/06/30 08:54:31;;;;;;;11.85;10.65;;;;;;;;;;8371224;28;20913;-86
2022/06/30 08:58:38;;;;;;;12.00;10.70;;;;;;;;;;8376637;28;20049;-87
2022/06/30 09:02:55;;;;;;;;;;;;;;;;;;8384110;28;20053;-87
2022/06/30 09:07:00;;;;;;;12.43;11.15;;;;;;;;;;8388548;28;20035;-91
2022/06/30 09:11:08;;;;;;;13.98;11.05;;;;;;;;;;8386627;28;20056;-88
2022/06/30 09:15:17;;;;;;;17.95;11.93;;;;;;;;;;8379356;28;20064;-87
2022/06/30 09:19:23;;;;;;;17.77;12.85;;;;;;;;;;8376001;28;20049;-87
2022/06/30 09:23:31;;;;;;;12.25;10.73;;;;;;;;;;8383155;28;20067;-88
2022/06/30 09:27:37;;;;;;;16.52;12.35;;;;;;;;;;8374298;28;20064;-87
2022/06/30 09:31:43;;;;;;;12.15;10.95;;;;;;;;;;8380777;28;20048;-86
2022/06/30 09:35:48;;;;;;;12.15;10.95;;;;;;;;;;8374379;28;20471;-85
2022/06/30 09:39:55;;;;;;;12.15;10.95;;;;;;;;;;8369872;28;20048;-89
2022/06/30 09:44:07;;;;;;;18.23;11.23;;;;;;;;;;8356515;28;20044;-88
2022/06/30 09:48:12;;;;;;;12.52;11.13;;;;;;;;;;8369090;28;20056;-86
2022/06/30 09:52:25;;;;;;;13.02;11.60;;;;;;;;;;8370683;28;20417;-86
2022/06/30 09:56:32;;;;;;;13.27;11.45;;;;;;;;;;8380980;28;20067;-88
2022/06/30 10:00:52;;;;;;;11.68;10.48;;;;;;;;;;8364537;28;20447;-96
2022/06/30 10:04:57;;;;;;;13.15;11.43;;;;;;;;;;8369459;28;20048;-88
2022/06/30 10:09:03;;;;;;;13.38;11.93;;;;;;;;;;8389397;28;20048;-88
2022/06/30 10:13:07;;;;;;;12.57;11.27;;;;;;;;;;8382431;28;20102;-89
2022/06/30 10:17:16;;;;;;;13.95;12.52;;;;;;;;;;8377388;28;20801;-86
2022/06/30 10:21:24;;;;;;;13.27;11.93;;;;;;;;;;8373735;28;20103;-92
2022/06/30 10:25:30;;;;;;;15.00;11.48;;;;;;;;;;8377068;28;20044;-85
2022/06/30 10:29:34;;;;;;;13.35;11.95;;;;;;;;;;8372448;28;20416;-88
2022/06/30 10:33:49;;;;;;;16.35;12.77;;;;;;;;;;8367449;28;20398;-87
2022/06/30 10:37:59;;;;;;;15.38;11.93;;;;;;;;;;8372525;28;20044;-88
2022/06/30 10:42:04;;;;;;;15.35;11.02;;;;;;;;;;8374604;28;20508;-88
2022/06/30 10:46:07;;;;;;;14.27;11.00;;;;;;;;;;8379128;28;20036;-87
2022/06/30 10:50:33;;;;;;;13.00;11.23;;;;;;;;;;8377551;28;20056;-88
2022/06/30 10:54:45;;;;;;;12.70;11.20;;;;;;;;;;8370963;28;20056;-94
2022/06/30 10:59:13;;;;;;;13.77;10.55;;;;;;;;;;8377764;28;20393;-93
2022/06/30 11:03:58;;;;;;;11.82;10.13;;;;;;;;;;8351622;28;20044;-88
2022/06/30 11:08:46;;;;;;;13.75;10.90;;;;;;;;;;8351674;28;20052;-88
2022/06/30 11:12:59;;;;;;;13.23;10.93;;;;;;;;;;8362812;28;20044;-88
2022/06/30 11:17:15;;;;;;;14.82;10.57;;;;;;;;;;8378549;28;20090;-90
2022/06/30 11:21:28;;;;;;;15.30;10.55;;;;;;;;;;8386243;28;20052;-89
2022/06/30 11:29:59;;;;;;;16.67;10.18;;;;;;;;;;8376301;28;20045;-88
2022/06/30 11:34:11;;;;;;;13.02;10.55;;;;;;;;;;8382167;28;20935;-95
2022/06/30 11:38:15;;;;;;;10.85;9.70;;;;;;;;;;8386793;28;20098;-90
2022/06/30 11:42:20;;;;;;;11.48;10.15;;;;;;;;;;8367653;28;20045;-88
2022/06/30 11:46:23;;;;;;;10.50;9.40;;;;;;;;;;8391167;28;20040;-88
2022/06/30 11:50:30;;;;;;;12.00;9.38;;;;;;;;;;8382785;28;20481;-89
2022/06/30 11:54:34;;;;;;;10.85;8.00;;;;;;;;;;8383192;28;20060;-94
2022/06/30 11:58:38;;;;;;;9.35;7.28;;;;;;;;;;8391615;28;20095;-90
2022/06/30 12:02:43;;;;;;;12.95;7.28;;;;;;;;;;8386933;28;20048;-88
2022/06/30 12:06:48;;;;;;;10.80;7.30;;;;;;;;;;8389643;28;20123;-87
2022/06/30 12:10:50;;;;;;;9.07;7.03;;;;;;;;;;8393431;28;20060;-85
2022/06/30 12:14:54;;;;;;;11.50;7.05;;;;;;;;;;8384662;28;20041;-87
2022/06/30 12:18:57;;;;;;;10.18;7.68;;;;;;;;;;8393209;28;20045;-88
2022/06/30 12:23:03;;;;;;;13.75;8.60;;;;;;;;;;8390304;28;20124;-91
2022/06/30 12:27:07;;;;;;;10.05;8.02;;;;;;;;;;8389213;28;20468;-89
2022/06/30 12:31:10;;;;;;;13.60;7.95;;;;;;;;;;8380319;28;20040;-86
2022/06/30 12:35:14;;;;;;;8.60;5.97;;;;;;;;;;8369953;28;20405;-87
2022/06/30 12:39:20;;;;;;;11.00;6.05;;;;;;;;;;8378061;28;20045;-85
2022/06/30 12:43:29;;;;;;;8.30;4.65;;;;;;;;;;8359349;28;20114;-87
2022/06/30 12:47:33;;;;;;;9.15;4.78;;;;;;;;;;8389473;28;20048;-87
2022/06/30 12:51:42;;;;;;;8.65;4.88;;;;;;;;;;8381225;28;20048;-85
2022/06/30 12:56:02;;;;;;;10.60;5.60;;;;;;;;;;8383924;28;20059;-93
2022/06/30 13:00:07;;;;;;;12.10;5.60;;;;;;;;;;8381549;28;20127;-87
2022/06/30 13:04:12;;;;;;;11.35;4.70;;;;;;;;;;8373350;28;20128;-93
2022/06/30 13:08:16;;;;;;;11.60;4.55;;;;;;;;;;8379288;28;20044;-89
2022/06/30 13:12:21;;;;;;;13.88;4.68;;;;;;;;;;8379780;28;20119;-94
2022/06/30 13:16:25;;;;;;;9.85;4.65;;;;;;;;;;8374010;28;20126;-86
2022/06/30 13:20:28;;;;;;;13.32;5.03;;;;;;;;;;8373200;28;20048;-86
2022/06/30 13:24:32;;;;;;;9.10;5.03;;;;;;;;;;8368970;28;20049;-92
2022/06/30 13:28:37;;;;;;;14.85;5.75;;;;;;;;;;8366253;28;20108;-87
2022/06/30 13:32:40;;;;;;;11.43;5.85;;;;;;;;;;8383198;28;20049;-88
2022/06/30 13:36:44;;;;;;;9.25;6.25;;;;;;;;;;8379888;28;20099;-87
2022/06/30 13:40:47;;;;;;;12.68;6.18;;;;;;;;;;8371308;28;20401;-90
2022/06/30 13:44:53;;;;;;;10.05;6.45;;;;;;;;;;8378119;28;20036;-88
2022/06/30 13:48:56;;;;;;;9.23;6.20;;;;;;;;;;8375906;28;20783;-87
2022/06/30 13:53:00;;;;;;;9.80;6.53;;;;;;;;;;8374349;28;20045;-87
2022/06/30 13:57:04;;;;;;;8.80;6.38;;;;;;;;;;8381526;28;20455;-87
2022/06/30 14:01:10;;;;;;;9.82;6.65;;;;;;;;;;8363223;28;20743;-88
2022/06/30 14:05:13;;;;;;;10.32;7.00;;;;;;;;;;8376782;28;20068;-87
2022/06/30 14:09:17;;;;;;;8.82;7.03;;;;;;;;;;8371457;28;20055;-86
2022/06/30 14:13:20;;;;;;;11.07;6.53;;;;;;;;;;8376292;28;20500;-87
2022/06/30 14:17:24;;;;;;;11.38;7.07;;;;;;;;;;8387583;28;20052;-86
2022/06/30 14:21:27;;;;;;;12.13;7.15;;;;;;;;;;8383626;28;20436;-86
2022/06/30 14:25:30;;;;;;;14.93;7.20;;;;;;;;;;8378553;28;20041;-87
2022/06/30 14:29:33;;;;;;;11.32;7.43;;;;;;;;;;8376621;28;20462;-87
2022/06/30 14:33:38;;;;;;;9.30;6.53;;;;;;;;;;8383353;28;20048;-86
2022/06/30 14:37:41;;;;;;;11.25;7.32;;;;;;;;;;8373257;28;20068;-87
2022/06/30 14:46:06;;;;;;;10.10;7.07;;;;;;;;;;8371189;28;20580;-86
2022/06/30 14:50:12;;;;;;;9.32;6.82;;;;;;;;;;8370834;28;20127;-87
2022/06/30 14:54:15;;;;;;;11.40;6.78;;;;;;;;;;8365952;28;20076;-88
2022/06/30 14:58:19;;;;;;;8.65;7.05;;;;;;;;;;8378514;28;20052;-87
2022/06/30 15:02:21;;;;;;;10.80;6.80;;;;;;;;;;8373465;28;20049;-86
2022/06/30 15:06:26;;;;;;;9.52;6.50;;;;;;;;;;8374637;28;20045;-88
2022/06/30 15:10:29;;;;;;;11.18;6.95;;;;;;;;;;8371052;28;20065;-86
2022/06/30 15:14:33;;;;;;;9.45;6.75;;;;;;;;;;8376788;28;20068;-87
2022/06/30 15:18:37;;;;;;;10.40;6.35;;;;;;;;;;8371765;28;20094;-86
2022/06/30 15:27:02;;;;;;;10.30;6.75;;;;;;;;;;8377401;28;20049;-86
2022/06/30 15:31:05;;;;;;;9.30;6.63;;;;;;;;;;8377405;28;20436;-86
2022/06/30 15:35:09;;;;;;;9.98;6.35;;;;;;;;;;8384767;28;20393;-88
2022/06/30 15:39:14;;;;;;;11.35;6.65;;;;;;;;;;8382840;28;20056;-88
2022/06/30 15:43:18;;;;;;;10.25;6.75;;;;;;;;;;8375682;28;20068;-88
2022/06/30 15:47:25;;;;;;;11.75;7.25;;;;;;;;;;8384603;28;20480;-87
2022/06/30 15:51:28;;;;;;;10.18;6.35;;;;;;;;;;8376767;28;20127;-88
2022/06/30 15:55:33;;;;;;;11.35;6.60;;;;;;;;;;8379066;28;20460;-86
2022/06/30 15:59:36;;;;;;;9.93;6.03;;;;;;;;;;8372789;28;20115;-89
2022/06/30 16:03:40;;;;;;;11.90;7.15;;;;;;;;;;8373220;28;20378;-87
2022/06/30 16:07:43;;;;;;;13.57;7.13;;;;;;;;;;8381149;28;20500;-88
2022/06/30 16:11:48;;;;;;;11.98;6.50;;;;;;;;;;8393244;28;20056;-88
2022/06/30 16:15:51;;;;;;;11.52;6.63;;;;;;;;;;8391281;28;20044;-89
2022/06/30 16:19:56;;;;;;;10.23;6.00;;;;;;;;;;8389148;28;20044;-88
2022/06/30 16:23:59;;;;;;;12.20;7.32;;;;;;;;;;8390130;28;20040;-88
2022/06/30 16:28:05;;;;;;;10.20;6.65;;;;;;;;;;8389817;28;20620;-88
2022/06/30 16:32:08;;;;;;;11.35;6.25;;;;;;;;;;8387294;28;20174;-89
2022/06/30 16:36:11;;;;;;;9.40;6.10;;;;;;;;;;8377691;28;20053;-87
2022/06/30 16:40:14;;;;;;;10.57;5.68;;;;;;;;;;8378363;28;20049;-87
2022/06/30 16:44:19;;;;;;;11.30;5.88;;;;;;;;;;8372096;28;20049;-92
2022/06/30 16:48:22;;;;;;;7.97;5.53;;;;;;;;;;8370055;28;20056;-88
2022/06/30 16:52:25;;;;;;;11.02;5.60;;;;;;;;;;8371766;28;20102;-88
2022/06/30 16:56:31;;;;;;;9.07;5.95;;;;;;;;;;8374198;28;20045;-88
2022/06/30 17:00:36;;;;;;;7.95;5.82;;;;;;;;;;8376301;28;20045;-88
2022/06/30 17:04:39;;;;;;;10.70;6.22;;;;;;;;;;8387695;28;20550;-88
2022/06/30 17:08:42;;;;;;;9.02;6.22;;;;;;;;;;8378314;28;20044;-88
2022/06/30 17:12:45;;;;;;;10.43;6.18;;;;;;;;;;8390602;28;20048;-88
2022/06/30 17:16:51;;;;;;;9.90;5.82;;;;;;;;;;8363257;28;20044;-87
2022/06/30 17:20:54;;;;;;;7.53;5.75;;;;;;;;;;8361988;28;20040;-87
2022/06/30 17:24:58;;;;;;;11.43;6.28;;;;;;;;;;8360858;28;20489;-87
2022/06/30 17:29:02;;;;;;;9.68;6.13;;;;;;;;;;8376056;28;22578;-87
2022/06/30 17:33:08;;;;;;;11.35;6.10;;;;;;;;;;8360761;28;20047;-86
2022/06/30 17:37:11;;;;;;;9.38;6.10;;;;;;;;;;8389581;28;20056;-86
2022/06/30 17:41:16;;;;;;;8.20;6.00;;;;;;;;;;8377156;28;20492;-88
2022/06/30 17:45:19;;;;;;;12.98;6.50;;;;;;;;;;8390703;28;20044;-87
2022/06/30 17:49:24;;;;;;;10.93;7.13;;;;;;;;;;8391525;28;20081;-88
2022/06/30 17:53:27;;;;;;;10.48;7.03;;;;;;;;;;8385681;28;20040;-88
2022/06/30 17:57:32;;;;;;;11.07;6.30;;;;;;;;;;8378822;28;20072;-87
2022/06/30 18:01:35;;;;;;;12.80;6.45;;;;;;;;;;8372246;28;20052;-88
2022/06/30 18:05:42;;;;;;;10.80;7.22;;;;;;;;;;8375278;28;20425;-86
2022/06/30 18:14:09;;;;;;;9.27;7.10;;;;;;;;;;8380024;28;20054;-86
2022/06/30 18:18:12;;;;;;;9.50;7.07;;;;;;;;;;8381343;28;20045;-88
2022/06/30 18:22:19;;;;;;;10.25;7.30;;;;;;;;;;8380391;28;20041;-89
2022/06/30 18:26:29;;;;;;;10.63;7.40;;;;;;;;;;8373996;28;20044;-87
2022/06/30 18:30:37;;;;;;;12.10;7.45;;;;;;;;;;8366971;28;20040;-87
2022/06/30 18:34:41;;;;;;;9.98;7.63;;;;;;;;;;8369465;28;20068;-87
2022/06/30 18:38:47;;;;;;;12.63;8.20;;;;;;;;;;8376450;28;20183;-92
2022/06/30 18:42:52;;;;;;;10.23;8.20;;;;;;;;;;8377550;28;20044;-94
2022/06/30 18:47:09;;;;;;;11.02;7.30;;;;;;;;;;8389048;28;20048;-88
2022/06/30 18:51:35;;;;;;;11.80;8.13;;;;;;;;;;8388866;28;20052;-88
2022/06/30 18:56:13;;;;;;;11.70;7.40;;;;;;;;;;8399137;28;20075;-91
2022/06/30 19:00:21;;;;;;;11.23;7.95;;;;;;;;;;8393546;28;20507;-91
2022/06/30 19:04:34;;;;;;;13.88;8.13;;;;;;;;;;8394151;28;20044;-90
2022/06/30 19:09:12;;;;;;;13.15;7.88;;;;;;;;;;8397919;28;20227;-93
2022/06/30 19:13:49;;;;;;;11.05;7.55;;;;;;;;;;8387661;28;20053;-87
2022/06/30 19:17:58;;;;;;;11.35;6.80;;;;;;;;;;8374411;28;20049;-86
2022/06/30 19:22:05;;;;;;;10.45;6.60;;;;;;;;;;8393664;28;20040;-86
2022/06/30 19:26:21;;;;;;;8.95;6.63;;;;;;;;;;8390667;28;20558;-86
2022/06/30 19:30:46;;;;;;;11.25;7.32;;;;;;;;;;8373270;28;20048;-87
2022/06/30 19:34:50;;;;;;;12.02;7.18;;;;;;;;;;8388291;28;20075;-88
2022/06/30 19:38:54;;;;;;;9.90;7.05;;;;;;;;;;8399010;28;20037;-88
2022/06/30 19:43:06;;;;;;;11.90;7.30;;;;;;;;;;8378090;28;20530;-89
2022/06/30 19:47:32;;;;;;;13.13;7.20;;;;;;;;;;8381227;28;20040;-88
2022/06/30 19:51:42;;;;;;;11.63;6.65;;;;;;;;;;8378583;28;20481;-87
2022/06/30 19:55:55;;;;;;;11.95;7.47;;;;;;;;;;8383272;28;20075;-87
2022/06/30 19:59:59;;;;;;;12.27;7.07;;;;;;;;;;8390194;28;20041;-86
2022/06/30 20:12:49;;;;;;;9.65;7.57;;;;;;;;;;8371224;28;20053;-87
2022/06/30 20:16:55;;;;;;;11.45;6.65;;;;;;;;;;8371977;28;20485;-87
2022/06/30 20:21:01;;;;;;;11.77;7.43;;;;;;;;;;8376730;28;20037;-88
2022/06/30 20:25:09;;;;;;;12.13;6.60;;;;;;;;;;8375417;28;20661;-87
2022/06/30 20:29:14;;;;;;;9.65;6.80;;;;;;;;;;8384999;28;20119;-87
2022/06/30 20:33:17;;;;;;;13.00;7.18;;;;;;;;;;8386280;28;20068;-87
2022/06/30 20:37:22;;;;;;;12.52;6.85;;;;;;;;;;8369672;28;20053;-86
2022/06/30 20:41:32;;;;;;;11.55;6.90;;;;;;;;;;8376188;28;20068;-87
2022/06/30 20:45:38;;;;;;;13.27;6.95;;;;;;;;;;8374286;28;20045;-86
2022/06/30 20:54:03;;;;;;;;;;;;;;;;;;8378542;28;20473;-87
2022/06/30 20:58:07;;;;;;;12.23;6.00;;;;;;;;;;8383008;28;19927;-87
2022/06/30 21:02:10;;;;;;;12.30;6.55;;;;;;;;;;8386279;28;20098;-86
2022/06/30 21:06:13;;;;;;;10.23;6.60;;;;;;;;;;8384154;28;20048;-88
2022/06/30 21:10:20;;;;;;;14.18;6.85;;;;;;;;;;8379884;28;20420;-87
2022/06/30 21:14:23;;;;;;;12.82;6.40;;;;;;;;;;8377910;28;20032;-87
2022/06/30 21:18:27;;;;;;;10.27;6.35;;;;;;;;;;8376652;28;20045;-87
2022/06/30 21:22:30;;;;;;;9.93;6.15;;;;;;;;;;8379300;28;20055;-86
2022/06/30 21:26:35;;;;;;;10.77;6.50;;;;;;;;;;8373740;28;20051;-86
2022/06/30 21:30:38;;;;;;;12.45;6.88;;;;;;;;;;8377789;28;20071;-87
2022/06/30 21:34:41;;;;;;;13.95;7.15;;;;;;;;;;8373585;28;20560;-86
2022/06/30 21:38:45;;;;;;;11.40;6.78;;;;;;;;;;8379225;28;20056;-87
2022/06/30 21:42:49;;;;;;;15.85;6.50;;;;;;;;;;8384824;28;20048;-86
2022/06/30 21:46:53;;;;;;;12.07;6.97;;;;;;;;;;8372965;28;20135;-86
2022/06/30 21:50:56;;;;;;;12.48;7.10;;;;;;;;;;8374862;28;20059;-86
2022/06/30 21:54:59;;;;;;;15.88;7.35;;;;;;;;;;8389174;28;20089;-87
2022/06/30 21:59:05;;;;;;;12.93;7.30;;;;;;;;;;8371739;28;20049;-86
2022/06/30 22:03:08;;;;;;;10.93;6.97;;;;;;;;;;8365896;28;20040;-86
2022/06/30 22:07:11;;;;;;;12.75;7.75;;;;;;;;;;8377841;28;20071;-86
2022/06/30 22:11:14;;;;;;;11.25;7.38;;;;;;;;;;8374690;28;20055;-87
2022/06/30 22:15:18;;;;;;;12.43;7.88;;;;;;;;;;8391260;28;20512;-87
2022/06/30 22:19:21;;;;;;;12.75;7.10;;;;;;;;;;8372533;28;20045;-89
2022/06/30 22:23:24;;;;;;;10.82;8.18;;;;;;;;;;8379688;28;20044;-92
2022/06/30 22:27:26;;;;;;;12.95;8.32;;;;;;;;;;8382222;28;20374;-91
2022/06/30 22:31:31;;;;;;;13.63;8.13;;;;;;;;;;8377261;28;20442;-87
2022/06/30 22:35:35;;;;;;;12.63;8.02;;;;;;;;;;8373902;28;20060;-88
2022/06/30 22:39:38;;;;;;;16.52;9.15;;;;;;;;;;8377866;28;20430;-89
2022/06/30 22:43:41;;;;;;;16.83;9.15;;;;;;;;;;8375102;28;20045;-88
2022/06/30 22:47:45;;;;;;;11.15;8.35;;;;;;;;;;8385685;28;20128;-87
2022/06/30 22:51:48;;;;;;;15.30;9.43;;;;;;;;;;8377569;28;20079;-89
2022/06/30 22:55:51;;;;;;;14.82;8.90;;;;;;;;;;8382966;28;20044;-86
2022/06/30 22:59:53;;;;;;;17.95;9.98;;;;;;;;;;8385949;28;20045;-86
2022/06/30 23:03:57;;;;;;;18.77;9.02;;;;;;;;;;8375426;28;20120;-86
2022/06/30 23:08:01;;;;;;;16.20;9.70;;;;;;;;;;8365839;28;20048;-86
2022/06/30 23:12:04;;;;;;;16.67;9.43;;;;;;;;;;8376266;28;20041;-88
2022/06/30 23:16:07;;;;;;;16.30;9.52;;;;;;;;;;8381893;28;20044;-89
2022/06/30 23:20:12;;;;;;;17.98;10.18;;;;;;;;;;8376260;28;20063;-88
2022/06/30 23:24:15;;;;;;;17.40;10.45;;;;;;;;;;8369876;28;20045;-89
2022/06/30 23:28:18;;;;;;;15.30;9.35;;;;;;;;;;8371968;28;20040;-88
2022/06/30 23:32:20;;;;;;;13.82;9.93;;;;;;;;;;8377136;28;20561;-87
2022/06/30 23:36:24;;;;;;;16.95;10.18;;;;;;;;;;8385151;28;20557;-88
2022/06/30 23:40:27;;;;;;;14.00;9.73;;;;;;;;;;8378786;28;20041;-88
2022/06/30 23:44:30;;;;;;;17.15;9.75;;;;;;;;;;8370544;28;20055;-88
2022/06/30 23:48:33;;;;;;;13.23;10.40;;;;;;;;;;8371413;28;20053;-88
2022/06/30 23:52:37;;;;;;;14.32;9.85;;;;;;;;;;8379421;28;20151;-87
2022/06/30 23:56:39;;;;;;;17.48;10.40;;;;;;;;;;8373676;28;20045;-88
